This is the latest recevied weather packets stored in our database for station/object N5UKZ-WX. If no packets are shown the sender has not sent any weather packets the latest 1 day(s).
| Time | Temp. | Humidity | Pressure | Rain* | Wind** | Luminosity | Snow |
|---|---|---|---|---|---|---|---|
| 1778088157 | 27.22° C | 88% | 1012.6 hPa | 0 mm | - | - | - |
| 1778085456 | 27.78° C | 84% | 1012.9 hPa | 0 mm | - | - | - |
| 1778084556 | 27.78° C | 85% | 1012.9 hPa | 0 mm | - | - | - |
| 1778080955 | 26.67° C | 89% | 1012.2 hPa | 0 mm | - | - | - |
| 1778080055 | 26.67° C | 90% | 1012.2 hPa | 0 mm | - | - | - |
| 1778071953 | 23.89° C | 95% | 1011.6 hPa | 0 mm | - | - | - |
| 1778071053 | 23.89° C | 95% | 1011.6 hPa | 0 mm | - | - | - |
| 1778062951 | 23.33° C | 95% | 1010.5 hPa | 0 mm | - | - | - |
| 1778062051 | 23.33° C | 94% | 1010.9 hPa | 0 mm | - | - | - |
| 1778061151 | 23.33° C | 94% | 1010.5 hPa | 0 mm | - | - | - |
| 1778059350 | 23.89° C | 94% | 1010.5 hPa | 0 mm | - | - | - |
| 1778058450 | 23.89° C | 94% | 1010.5 hPa | 0 mm | - | - | - |
| 1778057550 | 23.33° C | 94% | 1010.5 hPa | 0 mm | - | - | - |
| 1778056650 | 22.78° C | 93% | 1010.5 hPa | 0 mm | - | - | - |
| 1778054849 | 22.78° C | 93% | 1010.9 hPa | 0 mm | - | - | - |
| 1778053949 | 22.78° C | 93% | 1010.9 hPa | 0 mm | - | - | - |
| 1778053049 | 22.78° C | 93% | 1010.9 hPa | 0 mm | - | - | - |
| 1778049461 | 22.78° C | 92% | 1010.9 hPa | 0 mm | - | - | - |
| 1778048548 | 22.78° C | 92% | 1010.9 hPa | 0 mm | - | - | - |
| 1778044047 | 22.78° C | 91% | 1011.6 hPa | 0 mm | - | - | - |
| 1778042246 | 22.22° C | 90% | 1011.6 hPa | 0 mm | - | - | - |
| 1778041346 | 22.78° C | 89% | 1011.6 hPa | 0 mm | - | - | - |
| 1778040446 | 23.33° C | 88% | 1011.6 hPa | 0 mm | - | - | - |
| 1778039546 | 22.78° C | 87% | 1011.6 hPa | 0 mm | - | - | - |
| 1778038646 | 23.89° C | 87% | 1011.6 hPa | 0 mm | - | - | - |
* Rain latest hour (hover to see other rain measurements)
** Current wind speed in m/s (hover to see current wind gust speed)